Archival Weather

Republic

Farmingdale, New York (KFRG)

Report from: Wednesday, February 7, 2024 1:53 PM EST
Current time: Friday, June 14, 2024 9:41 AM EDT

Current weather – Weather history – Daily summaries
Weather forecast

Temperature7.8°C (46.0°F)
Wind chill5.5°C (41.9°F)
Dew point-5.0°C (23.0°F)
Winds 7 kts (3.6 m/s, 8.1 mph) North (350°)
Wind gusts 15 kts (7.7 m/s, 17.3 mph)
Visibility10 mi. (16.1 km)
Clouds Sky clear
Altimeter30.25 in.Hg (1024 mB)
Relative humidity40 %
Density altitude-1,169 ft. (-356 m)
Sea-level pressure102.4 kPa (1024 mB, 30.25 in.Hg)
Remarks Automated weather observing station without precipitation discriminator
Flight conditions Visual Meteorological Conditions
Raw dataKFRG 071853Z 35007G15KT 10SM CLR 08/M05 A3025 RMK AO1 SLP243 T00781050
An error has occurred. This application may no longer respond until reloaded. Reload 🗙